Time;durP1;ratioP1;P1;durP2;ratioP2;P2;SDS_P1;SDS_P2;PMS_P1;PMS_P2;Temp;Humidity;BMP_temperature;BMP_pressure;BME280_temperature;BME280_humidity;BME280_pressure;Samples;Min_cycle;Max_cycle;Signal;HPM_P1;HPM_P2
2022/03/06 00:01:30;;;;;;;16.08;9.38;;;-2.60;99.90;;;;;;4814593;29;20050;-85
2022/03/06 00:03:58;;;;;;;14.80;7.68;;;-2.60;99.90;;;;;;4814741;29;20041;-85
2022/03/06 00:06:26;;;;;;;17.15;9.85;;;-2.60;99.90;;;;;;4814713;29;20070;-84
2022/03/06 00:08:53;;;;;;;13.20;8.18;;;-2.70;99.90;;;;;;4813830;29;20065;-86
2022/03/06 00:11:21;;;;;;;18.83;10.95;;;-2.70;99.90;;;;;;4829279;29;20050;-85
2022/03/06 00:13:50;;;;;;;18.90;10.88;;;-2.60;99.90;;;;;;4829388;29;20647;-84
2022/03/06 00:16:18;;;;;;;16.90;10.63;;;-2.60;99.90;;;;;;4829402;29;20420;-85
2022/03/06 00:18:46;;;;;;;20.73;9.43;;;-2.70;99.90;;;;;;4829800;29;20484;-85
2022/03/06 00:21:14;;;;;;;18.25;10.88;;;-2.70;99.90;;;;;;4813867;29;20065;-85
2022/03/06 00:23:42;;;;;;;15.40;8.88;;;-2.70;99.90;;;;;;4835570;29;20408;-75
2022/03/06 00:26:09;;;;;;;13.30;9.70;;;-2.70;99.90;;;;;;4861482;29;20483;-75
2022/03/06 00:28:37;;;;;;;16.40;9.75;;;-2.70;99.90;;;;;;4878945;29;20499;-74
2022/03/06 00:31:06;;;;;;;19.63;9.93;;;-2.70;99.90;;;;;;4879331;29;20057;-75
2022/03/06 00:33:34;;;;;;;9.60;5.35;;;-2.80;99.90;;;;;;4878965;29;20063;-74
2022/03/06 00:36:03;;;;;;;16.50;9.80;;;-2.80;99.90;;;;;;4868825;29;20049;-74
2022/03/06 00:38:31;;;;;;;15.95;11.70;;;-2.70;99.90;;;;;;4860567;29;20068;-75
2022/03/06 00:40:58;;;;;;;16.85;8.65;;;-2.70;99.90;;;;;;4859996;29;20053;-74
2022/03/06 00:43:28;;;;;;;13.35;8.85;;;-2.80;99.90;;;;;;4860797;29;20046;-75
2022/03/06 00:45:57;;;;;;;23.27;11.07;;;-2.90;99.90;;;;;;4864546;29;20056;-74
2022/03/06 00:48:24;;;;;;;15.70;7.93;;;-2.90;99.90;;;;;;4878644;29;20518;-75
2022/03/06 00:50:52;;;;;;;20.23;9.40;;;-2.80;99.90;;;;;;4862437;29;20050;-75
2022/03/06 00:53:20;;;;;;;15.75;7.78;;;-2.80;99.90;;;;;;4860026;29;20057;-74
2022/03/06 00:55:48;;;;;;;18.92;9.65;;;-2.90;99.90;;;;;;4859555;29;20062;-74
2022/03/06 00:58:16;;;;;;;11.80;7.53;;;-2.90;99.90;;;;;;4860460;29;20049;-74
2022/03/06 01:00:47;;;;;;;14.38;8.35;;;-2.90;99.90;;;;;;4859948;29;20053;-74
2022/03/06 01:03:18;;;;;;;15.88;10.38;;;-2.90;99.90;;;;;;4860390;29;20392;-74
2022/03/06 01:05:47;;;;;;;20.85;11.15;;;-2.90;99.90;;;;;;4860050;29;20407;-74
2022/03/06 01:08:15;;;;;;;17.27;11.70;;;-2.90;99.90;;;;;;4859695;29;20060;-74
2022/03/06 01:10:46;;;;;;;15.27;11.15;;;-3.00;99.90;;;;;;4860188;29;20056;-74
2022/03/06 01:13:18;;;;;;;7.78;7.22;;;-3.00;99.90;;;;;;4859919;29;20050;-74
2022/03/06 01:15:46;;;;;;;11.32;5.55;;;-3.00;99.90;;;;;;4859751;29;20060;-74
2022/03/06 01:18:14;;;;;;;14.13;8.55;;;-3.00;99.90;;;;;;4864245;29;20052;-74
2022/03/06 01:20:41;;;;;;;13.48;8.25;;;-2.90;99.90;;;;;;4878162;29;20065;-74
2022/03/06 01:23:09;;;;;;;15.85;9.70;;;-3.00;99.90;;;;;;4878587;29;20479;-74
2022/03/06 01:25:37;;;;;;;20.55;10.65;;;-3.00;99.90;;;;;;4877989;29;20503;-74
2022/03/06 01:28:05;;;;;;;6.30;4.60;;;-3.00;99.90;;;;;;4877964;29;20068;-74
2022/03/06 01:30:33;;;;;;;8.40;7.93;;;-3.00;99.90;;;;;;4878516;29;20057;-75
2022/03/06 01:33:01;;;;;;;9.07;6.53;;;-2.90;99.90;;;;;;4878213;29;20411;-74
2022/03/06 01:35:29;;;;;;;18.58;10.68;;;-2.90;99.90;;;;;;4878265;29;20059;-74
2022/03/06 01:37:57;;;;;;;19.33;10.40;;;-2.90;99.90;;;;;;4877712;29;20049;-74
2022/03/06 01:40:25;;;;;;;16.48;7.68;;;-2.90;99.90;;;;;;4877387;29;20529;-74
2022/03/06 01:42:52;;;;;;;16.63;8.45;;;-3.00;99.90;;;;;;4878297;29;20053;-74
2022/03/06 01:45:21;;;;;;;14.93;9.27;;;-3.00;99.90;;;;;;4878062;29;20052;-74
2022/03/06 01:47:52;;;;;;;13.52;9.20;;;-3.00;99.90;;;;;;4877661;29;20072;-75
2022/03/06 01:50:22;;;;;;;20.30;10.63;;;-3.00;99.90;;;;;;4864624;29;20049;-74
2022/03/06 01:52:52;;;;;;;13.13;9.60;;;-3.00;99.90;;;;;;4859138;29;20057;-74
2022/03/06 01:55:23;;;;;;;16.75;9.50;;;-3.00;99.90;;;;;;4859585;29;20049;-74
2022/03/06 01:57:53;;;;;;;16.17;9.68;;;-3.00;99.90;;;;;;4872281;29;20061;-74
2022/03/06 02:00:26;;;;;;;12.63;8.35;;;-3.00;99.90;;;;;;4877522;29;20053;-74
2022/03/06 02:02:54;;;;;;;12.93;8.60;;;-3.10;99.90;;;;;;4878148;29;20064;-74
2022/03/06 02:05:23;;;;;;;7.85;7.07;;;-3.00;99.90;;;;;;4877481;29;20381;-74
2022/03/06 02:07:51;;;;;;;24.48;9.38;;;-3.00;99.90;;;;;;4877127;29;20056;-74
2022/03/06 02:10:19;;;;;;;16.00;9.27;;;-2.90;99.90;;;;;;4877423;29;20056;-74
2022/03/06 02:12:48;;;;;;;17.58;10.90;;;-3.00;99.90;;;;;;4877492;29;20045;-74
2022/03/06 02:15:17;;;;;;;15.48;9.02;;;-3.00;99.90;;;;;;4877787;29;20061;-74
2022/03/06 02:17:46;;;;;;;18.98;12.85;;;-3.00;99.90;;;;;;4877293;29;20056;-74
2022/03/06 02:20:24;;;;;;;15.98;12.38;;;-3.00;99.90;;;;;;4876772;29;20037;-74
2022/03/06 02:22:56;;;;;;;20.63;12.45;;;-3.00;99.90;;;;;;4877886;29;20041;-74
2022/03/06 02:25:27;;;;;;;15.98;10.70;;;-3.00;99.90;;;;;;4876931;29;20053;-74
2022/03/06 02:27:57;;;;;;;21.20;8.02;;;-3.00;99.90;;;;;;4877302;29;20048;-75
2022/03/06 02:30:28;;;;;;;15.93;13.77;;;-3.00;99.90;;;;;;4877519;29;20495;-74
2022/03/06 02:32:58;;;;;;;21.05;10.52;;;-3.00;99.90;;;;;;4876875;29;20061;-78
2022/03/06 02:35:26;;;;;;;15.50;8.10;;;-3.00;99.90;;;;;;4860562;29;20049;-74
2022/03/06 02:37:54;;;;;;;16.98;10.77;;;-3.00;99.90;;;;;;4877058;29;20056;-74
2022/03/06 02:40:22;;;;;;;13.40;9.93;;;-3.10;99.90;;;;;;4876744;29;20052;-74
2022/03/06 02:42:52;;;;;;;10.90;7.00;;;-3.10;99.90;;;;;;4877364;29;20057;-74
2022/03/06 02:45:22;;;;;;;16.98;10.23;;;-3.10;99.90;;;;;;4876892;29;20057;-74
2022/03/06 02:47:52;;;;;;;17.10;11.25;;;-3.10;99.90;;;;;;4876255;29;20049;-74
2022/03/06 02:50:24;;;;;;;18.38;11.95;;;-3.10;99.90;;;;;;4863729;29;20057;-74
2022/03/06 02:52:53;;;;;;;19.25;10.82;;;-3.00;99.90;;;;;;4858186;29;20064;-74
2022/03/06 02:55:22;;;;;;;17.80;12.00;;;-3.00;99.90;;;;;;4842003;29;20057;-74
2022/03/06 02:57:50;;;;;;;13.52;7.55;;;-3.00;99.90;;;;;;4858080;29;20064;-74
2022/03/06 03:00:20;;;;;;;14.18;9.13;;;-3.00;99.90;;;;;;4858461;29;20061;-74
2022/03/06 03:02:49;;;;;;;14.97;12.20;;;-3.00;99.90;;;;;;4858899;29;20502;-75
2022/03/06 03:05:18;;;;;;;16.40;10.18;;;-3.00;99.90;;;;;;4857997;29;20056;-74
2022/03/06 03:07:48;;;;;;;13.80;7.38;;;-3.00;99.90;;;;;;4858219;29;20495;-74
2022/03/06 03:10:19;;;;;;;19.48;9.63;;;-3.00;99.90;;;;;;4857685;29;20492;-74
2022/03/06 03:12:47;;;;;;;20.88;11.38;;;-3.00;99.90;;;;;;4858040;29;20085;-74
2022/03/06 03:15:15;;;;;;;18.55;10.57;;;-3.00;99.90;;;;;;4858749;29;20057;-73
2022/03/06 03:17:43;;;;;;;16.77;9.85;;;-2.90;99.90;;;;;;4826109;29;20060;-77
2022/03/06 03:20:13;;;;;;;17.50;10.20;;;-2.90;99.90;;;;;;4876322;29;20451;-74
2022/03/06 03:22:41;;;;;;;14.38;8.80;;;-2.90;99.90;;;;;;4876839;29;20431;-74
2022/03/06 03:25:09;;;;;;;17.40;10.80;;;-2.90;99.90;;;;;;4876132;29;20511;-81
2022/03/06 03:27:38;;;;;;;13.13;8.70;;;-2.90;99.90;;;;;;4876627;29;20057;-82
2022/03/06 03:30:07;;;;;;;18.45;8.77;;;-2.90;99.90;;;;;;4877145;29;20045;-81
2022/03/06 03:32:36;;;;;;;7.80;7.03;;;-2.80;99.90;;;;;;4876660;29;20048;-81
2022/03/06 03:35:04;;;;;;;18.40;9.30;;;-2.80;99.90;;;;;;4860152;29;20049;-82
2022/03/06 03:37:32;;;;;;;26.73;9.90;;;-2.80;99.90;;;;;;4859478;29;20056;-82
2022/03/06 03:40:00;;;;;;;17.13;13.15;;;-2.80;99.90;;;;;;4876237;29;20041;-82
2022/03/06 03:42:27;;;;;;;20.92;10.50;;;-2.80;99.90;;;;;;4877098;29;20067;-82
2022/03/06 03:44:55;;;;;;;12.20;9.18;;;-2.80;99.90;;;;;;4876662;29;20053;-82
2022/03/06 03:47:24;;;;;;;11.77;8.00;;;-2.80;99.90;;;;;;4876943;29;20060;-81
2022/03/06 03:49:52;;;;;;;20.63;13.95;;;-2.80;99.90;;;;;;4865685;29;20054;-74
2022/03/06 03:52:19;;;;;;;9.15;7.43;;;-2.80;99.90;;;;;;4857650;29;20062;-74
2022/03/06 03:54:47;;;;;;;23.08;11.45;;;-2.80;99.90;;;;;;4858114;29;20473;-74
2022/03/06 03:57:15;;;;;;;16.60;11.20;;;-2.80;99.90;;;;;;4866067;29;20041;-74
2022/03/06 03:59:43;;;;;;;10.55;7.60;;;-2.80;99.90;;;;;;4877546;29;20048;-74
2022/03/06 04:02:11;;;;;;;15.18;8.38;;;-2.80;99.90;;;;;;4863408;29;20049;-74
2022/03/06 04:04:39;;;;;;;13.57;9.45;;;-2.80;99.90;;;;;;4879716;29;20057;-74
2022/03/06 04:07:07;;;;;;;17.25;9.85;;;-2.70;99.90;;;;;;4879751;29;20053;-74
2022/03/06 04:09:35;;;;;;;16.90;9.65;;;-2.80;99.90;;;;;;4878781;29;20411;-74
2022/03/06 04:12:03;;;;;;;17.88;10.18;;;-2.80;99.90;;;;;;4879224;29;20061;-74
2022/03/06 04:14:31;;;;;;;16.75;11.73;;;-2.80;99.90;;;;;;4880013;29;20075;-74
2022/03/06 04:16:59;;;;;;;12.48;9.05;;;-2.80;99.90;;;;;;4879143;29;20566;-74
2022/03/06 04:19:26;;;;;;;21.70;11.07;;;-2.80;99.90;;;;;;4879623;29;20064;-74
2022/03/06 04:21:54;;;;;;;14.77;10.05;;;-2.80;99.90;;;;;;4879072;29;20049;-74
2022/03/06 04:24:22;;;;;;;13.93;11.48;;;-2.80;99.90;;;;;;4879084;29;20057;-74
2022/03/06 04:26:49;;;;;;;18.83;11.88;;;-2.70;99.90;;;;;;4879350;29;20060;-74
2022/03/06 04:29:17;;;;;;;21.48;9.93;;;-2.80;99.90;;;;;;4878640;29;20498;-74
2022/03/06 04:31:45;;;;;;;26.17;10.30;;;-2.80;99.90;;;;;;4878969;29;20467;-74
2022/03/06 04:34:12;;;;;;;9.10;6.40;;;-2.80;99.90;;;;;;4879196;29;20486;-74
2022/03/06 04:36:40;;;;;;;11.70;9.07;;;-2.80;99.90;;;;;;4878932;29;20034;-74
2022/03/06 04:39:08;;;;;;;21.25;10.23;;;-2.80;99.90;;;;;;4877653;29;20053;-74
2022/03/06 04:41:36;;;;;;;19.25;11.18;;;-2.80;99.90;;;;;;4860136;29;20049;-74
2022/03/06 04:44:04;;;;;;;15.73;9.43;;;-2.80;99.90;;;;;;4860204;29;20044;-74
2022/03/06 04:46:32;;;;;;;19.25;8.75;;;-2.80;99.90;;;;;;4869634;29;20049;-74
2022/03/06 04:48:59;;;;;;;13.70;9.90;;;-2.90;99.90;;;;;;4875828;29;20065;-74
2022/03/06 04:51:27;;;;;;;15.32;10.95;;;-2.90;99.90;;;;;;4860752;29;20480;-74
2022/03/06 04:53:55;;;;;;;18.92;9.93;;;-2.90;99.90;;;;;;4860210;29;20064;-75
2022/03/06 04:56:24;;;;;;;20.55;9.75;;;-2.90;99.90;;;;;;4859838;29;20049;-74
2022/03/06 04:58:52;;;;;;;17.08;11.07;;;-3.00;99.90;;;;;;4861114;29;20046;-74
2022/03/06 05:01:19;;;;;;;9.85;8.90;;;-2.90;99.90;;;;;;4877857;29;20052;-74
2022/03/06 05:03:50;;;;;;;9.50;8.25;;;-3.00;99.90;;;;;;4860069;29;20054;-74
2022/03/06 05:06:38;;;;;;;22.65;11.20;;;-3.00;99.90;;;;;;4862589;29;20065;-74
2022/03/06 05:10:09;;;;;;;16.48;10.20;;;-3.00;99.90;;;;;;4877650;29;20783;-74
2022/03/06 05:13:27;;;;;;;17.77;8.68;;;-3.00;99.90;;;;;;4877732;29;20056;-74
2022/03/06 05:16:31;;;;;;;12.55;8.50;;;-3.10;99.90;;;;;;4834802;29;20500;-74
2022/03/06 05:19:00;;;;;;;18.13;10.07;;;-3.10;99.90;;;;;;4869878;29;20391;-74
2022/03/06 05:21:28;;;;;;;18.30;9.60;;;-3.20;99.90;;;;;;4877496;29;20057;-73
2022/03/06 05:23:55;;;;;;;13.20;11.18;;;-3.20;99.90;;;;;;4877989;29;20408;-74
2022/03/06 05:26:23;;;;;;;16.25;8.95;;;-3.20;99.90;;;;;;4878209;29;20059;-74
2022/03/06 05:28:51;;;;;;;24.38;11.80;;;-3.20;99.90;;;;;;4861258;29;20045;-74
2022/03/06 05:31:19;;;;;;;15.95;9.98;;;-3.20;99.90;;;;;;4878401;29;20060;-74
2022/03/06 05:33:46;;;;;;;18.38;10.18;;;-3.20;99.90;;;;;;4877718;29;20045;-74
2022/03/06 05:36:19;;;;;;;10.52;7.57;;;-3.30;99.90;;;;;;4877608;29;20483;-74
2022/03/06 05:38:47;;;;;;;14.43;9.63;;;-3.30;99.90;;;;;;4878098;29;20060;-74
2022/03/06 05:41:15;;;;;;;17.10;8.45;;;-3.30;99.90;;;;;;4877517;29;20041;-73
2022/03/06 05:43:42;;;;;;;14.82;7.47;;;-3.30;99.90;;;;;;4877908;29;20071;-74
2022/03/06 05:46:10;;;;;;;17.23;8.32;;;-3.40;99.90;;;;;;4878321;29;20502;-74
2022/03/06 05:48:38;;;;;;;19.20;10.02;;;-3.40;99.90;;;;;;4877102;29;20053;-74
2022/03/06 05:51:05;;;;;;;17.33;11.15;;;-3.40;99.90;;;;;;4859444;29;20057;-74
2022/03/06 05:53:33;;;;;;;21.23;10.40;;;-3.40;99.90;;;;;;4852410;29;20049;-74
2022/03/06 05:56:01;;;;;;;12.65;8.60;;;-3.40;99.90;;;;;;4845059;29;20049;-74
2022/03/06 05:58:29;;;;;;;10.50;8.20;;;-3.40;99.90;;;;;;4838418;29;20069;-74
2022/03/06 06:00:56;;;;;;;14.23;10.40;;;-3.40;99.90;;;;;;4855154;29;20060;-74
2022/03/06 06:03:25;;;;;;;26.42;12.73;;;-3.40;99.90;;;;;;4877947;29;20045;-83
2022/03/06 06:05:53;;;;;;;15.20;7.97;;;-3.40;99.90;;;;;;4856116;29;20056;-83
2022/03/06 06:08:23;;;;;;;19.42;9.77;;;-3.40;99.90;;;;;;4831391;29;20053;-83
2022/03/06 06:10:50;;;;;;;15.40;10.48;;;-3.30;99.90;;;;;;4857702;29;20056;-83
2022/03/06 06:13:19;;;;;;;17.02;8.38;;;-3.30;99.90;;;;;;4846000;29;20049;-83
2022/03/06 06:15:47;;;;;;;12.57;8.60;;;-3.30;99.90;;;;;;4857534;29;20058;-83
2022/03/06 06:18:14;;;;;;;20.27;11.15;;;-3.30;99.90;;;;;;4813269;29;20053;-83
2022/03/06 06:20:42;;;;;;;13.30;9.85;;;-3.20;99.90;;;;;;4827840;29;20052;-83
2022/03/06 06:23:10;;;;;;;13.52;8.75;;;-3.10;99.90;;;;;;4859730;29;20057;-83
2022/03/06 06:25:37;;;;;;;16.27;8.45;;;-3.20;99.90;;;;;;4858986;29;20059;-83
2022/03/06 06:28:05;;;;;;;12.93;9.75;;;-3.20;99.90;;;;;;4842540;29;20404;-83
2022/03/06 06:30:33;;;;;;;14.07;8.05;;;-3.10;99.90;;;;;;4827638;29;20057;-83
2022/03/06 06:33:00;;;;;;;13.48;9.60;;;-3.10;99.90;;;;;;4842861;29;20068;-83
2022/03/06 06:35:28;;;;;;;16.83;8.15;;;-3.10;99.90;;;;;;4828148;29;20504;-83
2022/03/06 06:37:56;;;;;;;20.92;9.18;;;-3.00;99.90;;;;;;4827995;29;20049;-83
2022/03/06 06:40:24;;;;;;;20.40;7.20;;;-3.00;99.90;;;;;;4842161;29;20060;-83
2022/03/06 06:42:52;;;;;;;14.80;8.80;;;-3.00;99.90;;;;;;4843038;29;20052;-83
2022/03/06 06:45:20;;;;;;;14.07;7.28;;;-2.90;99.90;;;;;;4827641;29;20049;-83
2022/03/06 06:47:48;;;;;;;14.95;9.77;;;-2.90;99.90;;;;;;4859190;29;20715;-83
2022/03/06 06:50:16;;;;;;;16.30;10.13;;;-2.90;99.90;;;;;;4842878;29;20041;-83
2022/03/06 06:52:44;;;;;;;12.30;6.25;;;-2.90;99.90;;;;;;4859094;29;20495;-83
2022/03/06 06:55:11;;;;;;;9.88;7.10;;;-2.80;99.90;;;;;;4842557;29;20076;-83
2022/03/06 06:57:39;;;;;;;18.10;10.23;;;-2.80;99.90;;;;;;4858768;29;20048;-83
2022/03/06 07:00:07;;;;;;;16.17;9.25;;;-2.70;99.90;;;;;;4842606;29;20065;-83
2022/03/06 07:02:35;;;;;;;14.63;8.45;;;-2.60;99.90;;;;;;4842792;29;20054;-83
2022/03/06 07:05:04;;;;;;;15.88;8.63;;;-2.40;99.90;;;;;;4842102;29;20062;-83
2022/03/06 07:07:32;;;;;;;7.18;4.90;;;-2.20;99.90;;;;;;4827649;29;20046;-83
2022/03/06 07:09:59;;;;;;;15.52;8.07;;;-2.00;99.90;;;;;;4841342;29;20057;-83
2022/03/06 07:12:27;;;;;;;6.35;5.20;;;-1.90;99.90;;;;;;4829555;29;20049;-83
2022/03/06 07:14:55;;;;;;;8.35;7.55;;;-1.80;99.90;;;;;;4877419;29;20053;-83
2022/03/06 07:17:22;;;;;;;9.23;5.68;;;-1.60;99.90;;;;;;4860213;29;20064;-83
2022/03/06 07:19:50;;;;;;;14.48;10.98;;;-1.50;99.90;;;;;;4825312;29;20061;-83
2022/03/06 07:22:18;;;;;;;10.50;9.52;;;-1.40;99.90;;;;;;4842511;29;20049;-83
2022/03/06 07:24:46;;;;;;;12.68;6.72;;;-1.30;99.90;;;;;;4844586;29;20403;-83
2022/03/06 07:27:14;;;;;;;12.27;9.07;;;-1.50;99.90;;;;;;4845380;29;20049;-83
2022/03/06 07:29:41;;;;;;;14.93;7.38;;;-1.40;99.90;;;;;;4845248;29;20487;-83
2022/03/06 07:32:09;;;;;;;11.70;9.57;;;-1.40;99.90;;;;;;4860436;29;20075;-83
2022/03/06 07:34:37;;;;;;;27.17;10.63;;;-1.20;99.90;;;;;;4861531;29;20053;-83
2022/03/06 07:37:05;;;;;;;10.55;7.25;;;-1.10;99.90;;;;;;4832659;29;20052;-83
2022/03/06 07:39:33;;;;;;;11.77;7.03;;;-1.00;99.90;;;;;;4860411;29;20408;-83
2022/03/06 07:42:01;;;;;;;11.38;6.47;;;-0.70;99.90;;;;;;4844617;29;20052;-75
2022/03/06 07:44:29;;;;;;;12.27;7.30;;;-0.80;99.90;;;;;;4855152;29;20053;-75
2022/03/06 07:46:57;;;;;;;13.32;7.90;;;-0.70;99.90;;;;;;4861744;29;20045;-75
2022/03/06 07:49:25;;;;;;;15.32;10.93;;;-0.60;99.90;;;;;;4860876;29;20056;-75
2022/03/06 07:51:52;;;;;;;15.60;7.60;;;-0.50;99.90;;;;;;4872191;29;20057;-74
2022/03/06 07:54:20;;;;;;;9.85;6.75;;;-0.50;99.90;;;;;;4880264;29;20410;-75
2022/03/06 07:56:49;;;;;;;12.52;8.93;;;-0.50;99.90;;;;;;4869976;29;20527;-75
2022/03/06 07:59:16;;;;;;;12.95;7.00;;;-0.40;99.90;;;;;;4842958;29;20389;-75
2022/03/06 08:01:44;;;;;;;15.75;8.32;;;-0.50;99.90;;;;;;4856895;29;20071;-75
2022/03/06 08:04:12;;;;;;;10.73;7.78;;;-0.20;99.90;;;;;;4879749;29;20053;-76
2022/03/06 08:06:39;;;;;;;9.15;7.30;;;0.00;99.90;;;;;;4880052;29;20057;-75
2022/03/06 08:09:07;;;;;;;14.70;10.45;;;0.10;99.90;;;;;;4862220;29;20056;-75
2022/03/06 08:11:35;;;;;;;27.17;16.73;;;0.10;99.90;;;;;;4879692;29;20052;-75
2022/03/06 08:14:03;;;;;;;11.38;7.35;;;0.10;99.90;;;;;;4878953;29;20127;-76
2022/03/06 08:16:30;;;;;;;17.27;12.23;;;0.20;99.90;;;;;;4879386;29;20518;-76
2022/03/06 08:18:58;;;;;;;13.88;7.85;;;0.20;99.90;;;;;;4879703;29;20045;-76
2022/03/06 08:21:26;;;;;;;4.22;3.38;;;0.20;99.90;;;;;;4879227;29;20415;-76
2022/03/06 08:23:54;;;;;;;11.48;7.53;;;0.20;99.90;;;;;;4879351;29;20053;-77
2022/03/06 08:26:23;;;;;;;15.98;10.30;;;0.40;99.90;;;;;;4879723;29;20053;-76
2022/03/06 08:28:51;;;;;;;22.05;17.05;;;0.50;99.90;;;;;;4879265;29;20045;-75
2022/03/06 08:31:19;;;;;;;18.17;9.23;;;0.40;99.90;;;;;;4879770;29;20131;-76
2022/03/06 08:33:47;;;;;;;10.65;7.25;;;0.50;99.90;;;;;;4875776;29;20050;-76
2022/03/06 08:36:15;;;;;;;6.45;5.95;;;0.60;99.90;;;;;;4860203;29;20053;-75
2022/03/06 08:38:43;;;;;;;10.90;9.25;;;0.70;99.90;;;;;;4860536;29;20053;-75
2022/03/06 08:41:11;;;;;;;19.80;13.07;;;0.90;99.90;;;;;;4859886;29;20207;-76
2022/03/06 08:43:39;;;;;;;12.07;9.18;;;0.90;99.90;;;;;;4859966;29;20060;-73
2022/03/06 08:46:06;;;;;;;16.50;8.70;;;0.70;99.90;;;;;;4854094;29;20049;-75
2022/03/06 08:48:37;;;;;;;18.67;13.02;;;0.80;99.90;;;;;;4841969;29;20050;-74
2022/03/06 08:51:05;;;;;;;11.18;7.78;;;0.80;99.90;;;;;;4843940;29;20057;-74
2022/03/06 08:53:33;;;;;;;16.27;12.88;;;0.90;99.90;;;;;;4860040;29;20056;-75
2022/03/06 08:56:01;;;;;;;10.45;8.10;;;1.00;99.90;;;;;;4859682;29;20057;-74
2022/03/06 08:58:28;;;;;;;10.88;8.00;;;1.10;99.90;;;;;;4860343;29;20049;-75
2022/03/06 09:00:57;;;;;;;7.88;7.13;;;1.00;99.90;;;;;;4860040;29;20057;-75
2022/03/06 09:03:28;;;;;;;10.02;7.53;;;1.00;99.90;;;;;;4860170;29;20057;-74
2022/03/06 09:05:57;;;;;;;13.02;9.57;;;1.10;99.90;;;;;;4857527;29;20400;-74
2022/03/06 09:08:26;;;;;;;12.57;9.82;;;1.10;99.90;;;;;;4856594;29;20781;-74
2022/03/06 09:10:53;;;;;;;30.70;14.63;;;1.20;99.90;;;;;;4859861;29;20053;-73
2022/03/06 09:13:21;;;;;;;16.20;13.00;;;1.30;99.90;;;;;;4842415;29;20050;-75
2022/03/06 09:15:49;;;;;;;9.68;7.65;;;1.20;99.90;;;;;;4851414;29;20046;-74
2022/03/06 09:18:17;;;;;;;11.13;9.18;;;1.30;99.90;;;;;;4852738;29;20061;-74
2022/03/06 09:20:45;;;;;;;6.07;5.47;;;1.80;99.90;;;;;;4841190;29;20045;-75
2022/03/06 09:23:12;;;;;;;14.98;8.35;;;2.00;99.90;;;;;;4843120;29;20411;-74
2022/03/06 09:25:40;;;;;;;20.38;13.05;;;1.80;99.90;;;;;;4854803;29;20543;-74
2022/03/06 09:28:08;;;;;;;15.85;10.43;;;1.60;99.90;;;;;;4859519;29;20053;-75
2022/03/06 09:30:35;;;;;;;15.02;8.30;;;1.60;99.90;;;;;;4859224;29;20491;-75
2022/03/06 09:33:03;;;;;;;9.48;7.10;;;1.50;99.90;;;;;;4854958;29;20049;-75
2022/03/06 09:35:31;;;;;;;14.98;11.77;;;1.70;99.90;;;;;;4856406;29;20049;-74
2022/03/06 09:37:59;;;;;;;10.98;9.75;;;1.80;99.90;;;;;;4859199;29;20049;-75
2022/03/06 09:40:27;;;;;;;12.73;9.00;;;1.80;99.90;;;;;;4858095;29;20054;-74
2022/03/06 09:42:55;;;;;;;12.38;8.35;;;1.90;99.90;;;;;;4855043;29;20056;-75
2022/03/06 09:45:23;;;;;;;11.80;10.38;;;1.80;99.90;;;;;;4859158;29;20061;-75
2022/03/06 09:47:53;;;;;;;12.68;9.10;;;1.80;99.90;;;;;;4859237;29;20057;-75
2022/03/06 09:50:21;;;;;;;14.50;10.60;;;1.80;99.90;;;;;;4842503;29;20057;-75
2022/03/06 09:52:49;;;;;;;13.18;7.60;;;1.60;99.90;;;;;;4859054;29;20049;-75
2022/03/06 09:55:16;;;;;;;26.05;15.75;;;1.60;99.90;;;;;;4842842;29;20057;-74
2022/03/06 09:57:44;;;;;;;13.43;8.48;;;1.50;99.90;;;;;;4846681;29;20046;-74
2022/03/06 10:00:12;;;;;;;11.40;4.05;;;1.60;99.90;;;;;;4841092;29;20424;-74
2022/03/06 10:03:01;;;;;;;11.35;6.75;;;1.80;99.90;;;;;;4869350;29;20056;-75
2022/03/06 10:05:37;;;;;;;13.63;8.52;;;1.90;99.90;;;;;;4842142;29;20058;-75
2022/03/06 10:08:16;;;;;;;9.95;8.55;;;1.70;99.90;;;;;;4858606;29;20053;-75
2022/03/06 10:10:45;;;;;;;17.05;9.80;;;1.80;99.90;;;;;;4858915;29;20052;-75
2022/03/06 10:13:39;;;;;;;12.48;10.18;;;2.10;99.90;;;;;;4858501;29;20634;-75
2022/03/06 10:16:20;;;;;;;14.40;8.23;;;2.10;99.90;;;;;;4858784;29;20045;-75
2022/03/06 10:18:48;;;;;;;13.80;6.57;;;1.90;99.90;;;;;;4859114;29;20084;-75
2022/03/06 10:21:26;;;;;;;14.05;6.72;;;1.90;99.90;;;;;;4841567;29;20053;-75
2022/03/06 10:23:59;;;;;;;20.70;15.23;;;1.80;99.90;;;;;;4858423;29;20068;-74
2022/03/06 10:26:29;;;;;;;10.52;6.88;;;1.90;99.90;;;;;;4858731;29;20057;-75
2022/03/06 10:29:03;;;;;;;18.95;11.23;;;2.00;99.90;;;;;;4858823;29;20053;-74
2022/03/06 10:31:33;;;;;;;9.32;5.43;;;2.00;99.90;;;;;;4858918;29;20053;-74
2022/03/06 10:34:05;;;;;;;7.22;6.55;;;2.10;99.90;;;;;;4857336;29;20045;-75
2022/03/06 10:36:42;;;;;;;20.38;10.68;;;2.20;99.90;;;;;;4858439;29;20053;-74
2022/03/06 10:39:21;;;;;;;17.52;13.63;;;2.10;99.90;;;;;;4857985;29;20068;-83
2022/03/06 10:41:55;;;;;;;11.35;8.65;;;2.10;99.90;;;;;;4831191;29;20054;-84
2022/03/06 10:44:42;;;;;;;7.32;6.63;;;2.10;99.90;;;;;;4814792;29;20054;-73
2022/03/06 10:47:15;;;;;;;10.07;7.40;;;2.20;99.70;;;;;;4861443;29;20045;-75
2022/03/06 10:50:02;;;;;;;7.20;5.85;;;2.30;99.90;;;;;;4866694;29;20423;-75
2022/03/06 10:52:42;;;;;;;15.35;9.48;;;2.60;99.90;;;;;;4857990;29;20060;-76
2022/03/06 10:55:10;;;;;;;12.65;7.07;;;2.60;99.30;;;;;;4858065;29;20061;-76
2022/03/06 10:57:39;;;;;;;13.35;10.38;;;2.60;98.90;;;;;;4858146;29;20049;-75
2022/03/06 11:00:07;;;;;;;10.32;7.43;;;2.60;99.10;;;;;;4858095;29;20060;-76
2022/03/06 11:02:36;;;;;;;6.88;5.70;;;2.60;99.90;;;;;;4858427;29;20064;-75
2022/03/06 11:05:06;;;;;;;7.72;6.93;;;2.70;99.20;;;;;;4857801;29;20088;-75
2022/03/06 11:07:34;;;;;;;8.38;6.97;;;2.60;99.10;;;;;;4858577;29;20057;-76
2022/03/06 11:10:02;;;;;;;15.68;6.38;;;2.70;97.90;;;;;;4858628;29;20069;-75
2022/03/06 11:12:32;;;;;;;13.23;6.88;;;2.70;99.90;;;;;;4861918;29;20045;-76
2022/03/06 11:15:01;;;;;;;9.23;7.32;;;2.60;99.90;;;;;;4862085;29;20050;-76
2022/03/06 11:17:30;;;;;;;9.75;8.63;;;2.70;98.70;;;;;;4861654;29;20060;-76
2022/03/06 11:19:58;;;;;;;10.13;8.70;;;2.70;99.80;;;;;;4860743;29;20049;-76
2022/03/06 11:22:34;;;;;;;11.40;7.57;;;2.90;99.00;;;;;;4862288;29;20056;-76
2022/03/06 11:25:10;;;;;;;17.20;7.22;;;2.70;99.70;;;;;;4861756;29;20128;-76
2022/03/06 11:28:26;;;;;;;8.83;5.60;;;2.80;97.80;;;;;;4845080;29;20049;-76
2022/03/06 11:30:59;;;;;;;6.10;5.50;;;2.70;98.70;;;;;;4847997;29;20317;-76
2022/03/06 11:33:27;;;;;;;7.22;6.10;;;3.00;98.00;;;;;;4861629;29;20049;-76
2022/03/06 11:35:56;;;;;;;10.88;5.78;;;3.10;93.90;;;;;;4844514;29;20061;-76
2022/03/06 11:38:39;;;;;;;5.95;5.30;;;3.10;97.00;;;;;;4861473;29;20061;-76
2022/03/06 11:41:10;;;;;;;7.80;5.03;;;3.20;95.70;;;;;;4860564;29;20526;-76
2022/03/06 11:43:44;;;;;;;11.50;6.90;;;3.00;95.40;;;;;;4861236;29;20049;-76
2022/03/06 11:46:26;;;;;;;12.35;8.10;;;3.10;94.10;;;;;;4861708;29;20397;-76
2022/03/06 11:48:56;;;;;;;6.18;5.80;;;3.20;95.20;;;;;;4860928;29;20050;-76
2022/03/06 11:51:24;;;;;;;8.05;5.93;;;3.40;94.70;;;;;;4861328;29;20064;-76
2022/03/06 11:53:54;;;;;;;10.88;5.95;;;3.30;93.70;;;;;;4860833;29;20583;-76
2022/03/06 11:56:34;;;;;;;7.15;6.20;;;3.40;97.80;;;;;;4860419;29;20054;-76
2022/03/06 11:59:17;;;;;;;8.02;6.05;;;3.40;95.20;;;;;;4861502;29;20480;-77
2022/03/06 12:01:56;;;;;;;11.32;8.23;;;3.50;93.90;;;;;;4860797;29;20065;-77
2022/03/06 12:04:26;;;;;;;12.73;7.43;;;3.60;94.50;;;;;;4860895;29;20407;-77
2022/03/06 12:07:00;;;;;;;9.77;5.55;;;3.50;95.60;;;;;;4861391;29;20046;-76
2022/03/06 12:09:38;;;;;;;7.95;4.85;;;3.50;92.90;;;;;;4860468;29;20058;-76
2022/03/06 12:12:18;;;;;;;7.03;6.30;;;3.70;89.30;;;;;;4860899;29;20056;-76
2022/03/06 12:14:57;;;;;;;11.30;8.05;;;3.60;89.70;;;;;;4861560;29;20046;-75
2022/03/06 12:17:36;;;;;;;14.30;7.30;;;3.80;89.70;;;;;;4861167;29;20050;-76
2022/03/06 12:20:09;;;;;;;8.10;6.40;;;4.00;91.30;;;;;;4860247;29;20061;-75
2022/03/06 12:22:46;;;;;;;6.63;5.90;;;4.20;91.10;;;;;;4861046;29;20045;-76
2022/03/06 12:25:14;;;;;;;5.28;4.78;;;4.30;88.00;;;;;;4860331;29;20046;-75
2022/03/06 12:28:03;;;;;;;13.65;7.10;;;4.00;85.50;;;;;;4860784;29;20061;-76
2022/03/06 12:30:34;;;;;;;11.05;7.07;;;3.80;87.50;;;;;;4860590;29;20065;-76
2022/03/06 12:33:29;;;;;;;13.02;11.68;;;4.20;88.80;;;;;;4860603;29;20049;-75
2022/03/06 12:36:07;;;;;;;10.45;6.68;;;3.90;85.50;;;;;;4860478;29;20101;-76
2022/03/06 12:38:36;;;;;;;13.85;9.02;;;4.00;88.60;;;;;;4861011;29;20069;-76
2022/03/06 12:41:05;;;;;;;7.32;6.30;;;3.80;86.50;;;;;;4859552;29;20064;-76
2022/03/06 12:43:36;;;;;;;10.75;5.20;;;3.80;87.60;;;;;;4860939;29;20054;-76
2022/03/06 12:46:04;;;;;;;9.83;8.50;;;4.00;86.70;;;;;;4860092;29;20056;-75
2022/03/06 12:48:32;;;;;;;7.72;6.95;;;4.10;86.20;;;;;;4860065;29;20057;-75
2022/03/06 12:51:00;;;;;;;8.57;5.95;;;4.00;85.90;;;;;;4843730;29;20511;-76
2022/03/06 12:53:28;;;;;;;11.93;7.32;;;4.00;85.90;;;;;;4859780;29;20053;-76